Time;durP1;ratioP1;P1;durP2;ratioP2;P2;SDS_P1;SDS_P2;PMS_P1;PMS_P2;Temp;Humidity;BMP_temperature;BMP_pressure;BME280_temperature;BME280_humidity;BME280_pressure;Samples;Min_cycle;Max_cycle;Signal;HPM_P1;HPM_P2
2024/03/26 00:01:58;;;;;;;;;5.00;5.00;;;;;12.08;49.42;98639.69;5059842;28;45487;-62
2024/03/26 00:04:24;;;;;;;;;5.50;4.00;;;;;12.09;49.47;98636.97;5053899;28;45546;-61
2024/03/26 00:06:49;;;;;;;;;6.00;4.00;;;;;12.11;49.55;98635.09;5052317;28;66497;-62
2024/03/26 00:09:14;;;;;;;;;5.25;3.50;;;;;12.13;49.51;98627.13;5053960;28;72235;-63
2024/03/26 00:11:40;;;;;;;;;5.50;4.00;;;;;12.11;49.20;98621.13;5058423;28;68286;-62
2024/03/26 00:14:05;;;;;;;;;5.25;4.25;;;;;12.14;49.34;98626.16;5039275;28;45493;-62
2024/03/26 00:16:30;;;;;;;;;4.75;3.50;;;;;12.17;49.49;98617.28;5050784;28;71103;-63
2024/03/26 00:18:56;;;;;;;;;5.00;3.75;;;;;12.18;49.55;98613.69;5049815;28;69468;-62
2024/03/26 00:21:21;;;;;;;;;6.00;4.00;;;;;12.17;49.65;98612.84;5059264;28;63300;-63
2024/03/26 00:23:46;;;;;;;;;7.00;5.00;;;;;12.21;49.82;98614.31;5058005;28;73267;-63
2024/03/26 00:26:11;;;;;;;;;4.75;4.50;;;;;12.22;49.40;98616.00;5056962;28;74256;-62
2024/03/26 00:28:37;;;;;;;;;5.00;5.00;;;;;12.21;49.20;98616.94;5058084;28;49466;-63
2024/03/26 00:31:02;;;;;;;;;4.75;3.00;;;;;12.25;49.53;98623.69;5056961;27;62656;-61
2024/03/26 00:33:27;;;;;;;;;9.75;4.75;;;;;12.25;49.75;98614.94;5051800;28;45257;-61
2024/03/26 00:35:53;;;;;;;;;6.25;3.50;;;;;12.25;49.35;98612.31;5054069;28;50313;-61
2024/03/26 00:38:18;;;;;;;;;5.25;5.25;;;;;12.25;49.41;98612.31;5056399;28;73169;-61
2024/03/26 00:40:43;;;;;;;;;7.00;5.00;;;;;12.25;49.73;98613.19;5054711;28;62059;-61
2024/03/26 00:43:09;;;;;;;;;9.25;4.25;;;;;12.27;49.40;98610.44;5056357;28;67238;-63
2024/03/26 00:45:34;;;;;;;;;5.00;4.00;;;;;12.28;49.84;98610.34;5053133;28;75761;-61
2024/03/26 00:48:00;;;;;;;;;5.00;5.00;;;;;12.28;49.54;98602.47;5051756;28;72058;-61
2024/03/26 00:50:25;;;;;;;;;6.00;4.25;;;;;12.29;49.87;98605.94;5055065;28;45556;-60
2024/03/26 00:52:51;;;;;;;;;6.75;5.00;;;;;12.29;49.58;98605.94;5052504;28;45261;-60
2024/03/26 00:55:16;;;;;;;;;5.50;5.00;;;;;12.27;49.40;98606.06;5057760;28;47126;-58
2024/03/26 00:57:43;;;;;;;;;5.00;5.00;;;;;12.29;49.77;98605.94;5057183;28;45463;-62
2024/03/26 01:00:10;;;;;;;;;7.75;5.75;;;;;12.29;49.54;98596.28;5056636;28;45478;-62
2024/03/26 01:02:36;;;;;;;;;7.75;6.00;;;;;12.33;49.98;98595.13;5055575;28;45660;-63
2024/03/26 01:05:01;;;;;;;;;8.00;5.00;;;;;12.32;49.75;98588.22;5038704;28;46222;-62
2024/03/26 01:07:27;;;;;;;;;6.00;6.00;;;;;12.29;49.67;98587.59;5054949;27;45236;-62
2024/03/26 01:09:53;;;;;;;;;5.00;5.00;;;;;12.27;49.99;98592.94;5048516;28;66483;-63
2024/03/26 01:12:18;;;;;;;;;7.00;6.25;;;;;12.28;50.01;98581.47;5050343;28;45443;-61
2024/03/26 01:14:44;;;;;;;;;8.75;5.50;;;;;12.29;49.86;98577.09;5046553;28;46364;-61
2024/03/26 01:17:09;;;;;;;;;10.00;6.75;;;;;12.30;49.72;98578.75;5055505;28;71480;-61
2024/03/26 01:19:34;;;;;;;;;7.75;6.00;;;;;12.29;50.15;98577.09;5057639;28;69159;-62
2024/03/26 01:21:59;;;;;;;;;6.00;6.00;;;;;12.28;50.08;98572.78;5055777;28;66618;-62
2024/03/26 01:24:25;;;;;;;;;8.25;6.00;;;;;12.26;50.00;98583.38;5051868;27;73500;-63
2024/03/26 01:26:50;;;;;;;;;5.25;5.00;;;;;12.26;50.38;98582.56;5048194;28;69681;-62
2024/03/26 01:29:15;;;;;;;;;10.25;7.75;;;;;12.28;50.11;98578.84;5053459;28;69295;-62
2024/03/26 01:31:41;;;;;;;;;9.00;6.75;;;;;12.27;50.04;98566.72;5054936;28;71685;-61
2024/03/26 01:34:06;;;;;;;;;8.75;7.00;;;;;12.27;50.15;98564.09;5050721;28;46019;-62
2024/03/26 01:36:31;;;;;;;;;6.50;6.00;;;;;12.26;50.48;98565.03;5056066;28;60955;-61
2024/03/26 01:38:57;;;;;;;;;7.00;6.00;;;;;12.24;50.56;98559.06;5051582;28;69305;-62
2024/03/26 01:41:22;;;;;;;;;10.00;5.75;;;;;12.23;50.86;98557.34;5056666;28;57598;-61
2024/03/26 01:43:47;;;;;;;;;7.00;7.00;;;;;12.21;51.04;98558.41;5054137;28;55558;-62
2024/03/26 01:46:13;;;;;;;;;8.25;6.00;;;;;12.24;51.49;98555.59;5053663;28;71684;-62
2024/03/26 01:48:39;;;;;;;;;9.00;7.50;;;;;12.23;51.45;98559.16;5056238;28;63697;-59
2024/03/26 01:51:04;;;;;;;;;6.75;6.00;;;;;12.22;51.49;98565.34;5041354;28;54236;-62
2024/03/26 01:53:30;;;;;;;;;9.25;6.75;;;;;12.18;52.33;98554.22;5052704;28;61901;-61
2024/03/26 01:55:56;;;;;;;;;6.00;5.00;;;;;12.16;53.17;98553.47;5050177;28;66421;-62
2024/03/26 01:58:21;;;;;;;;;9.50;7.25;;;;;12.14;53.13;98550.13;5043697;28;45181;-61
2024/03/26 02:00:48;;;;;;;;;8.75;8.00;;;;;12.09;53.56;98553.09;5055284;28;73433;-61
2024/03/26 02:03:14;;;;;;;;;8.25;6.75;;;;;12.08;53.93;98554.00;5053662;28;46366;-62
2024/03/26 02:05:39;;;;;;;;;9.75;6.00;;;;;12.07;54.07;98556.75;5048812;28;72164;-60
2024/03/26 02:08:05;;;;;;;;;11.75;7.00;;;;;12.02;54.25;98548.34;5043745;28;67552;-62
2024/03/26 02:10:31;;;;;;;;;6.75;6.00;;;;;12.01;54.36;98547.50;5056681;28;45814;-62
2024/03/26 02:12:56;;;;;;;;;5.50;5.25;;;;;11.98;54.79;98547.72;5054269;28;45373;-62
2024/03/26 02:15:22;;;;;;;;;10.50;6.50;;;;;11.94;54.50;98548.88;5055148;28;73160;-62
2024/03/26 02:17:47;;;;;;;;;4.75;4.75;;;;;11.91;55.04;98552.53;5050058;28;67528;-62
2024/03/26 02:20:14;;;;;;;;;5.50;5.25;;;;;11.91;55.20;98541.22;5042141;28;64571;-62
2024/03/26 02:22:40;;;;;;;;;10.00;6.00;;;;;11.90;55.40;98542.13;5053141;28;49290;-62
2024/03/26 02:25:05;;;;;;;;;6.50;4.75;;;;;11.88;55.38;98534.38;5046800;28;45318;-60
2024/03/26 02:27:30;;;;;;;;;12.25;10.50;;;;;11.86;55.89;98541.47;5059704;28;45476;-60
2024/03/26 02:29:56;;;;;;;;;8.25;6.00;;;;;11.86;56.13;98535.41;5059969;28;67453;-61
2024/03/26 02:32:21;;;;;;;;;7.00;5.50;;;;;11.86;56.33;98535.41;5056144;28;63747;-61
2024/03/26 02:34:47;;;;;;;;;6.50;5.00;;;;;11.86;56.48;98538.03;5058757;28;73354;-61
2024/03/26 02:37:12;;;;;;;;;7.75;6.50;;;;;11.86;56.25;98535.41;5053574;28;45156;-61
2024/03/26 02:39:38;;;;;;;;;5.00;5.00;;;;;11.85;56.55;98539.00;5051758;28;73360;-61
2024/03/26 02:42:03;;;;;;;;;6.00;6.00;;;;;11.84;56.46;98537.31;5054607;28;74576;-61
2024/03/26 02:44:29;;;;;;;;;8.25;6.00;;;;;11.83;56.34;98536.47;5058222;28;45310;-61
2024/03/26 02:46:54;;;;;;;;;8.75;6.00;;;;;11.83;56.42;98530.38;5057890;28;45941;-61
2024/03/26 02:49:19;;;;;;;;;9.50;7.75;;;;;11.83;56.80;98517.25;5059381;28;73292;-61
2024/03/26 02:51:45;;;;;;;;;5.00;5.00;;;;;11.85;56.92;98525.88;5058249;28;73126;-62
2024/03/26 02:54:10;;;;;;;;;7.00;6.00;;;;;11.85;57.17;98516.22;5055671;28;45670;-61
2024/03/26 02:56:36;;;;;;;;;7.50;7.00;;;;;11.88;57.61;98521.28;5059733;28;45363;-61
2024/03/26 02:59:02;;;;;;;;;7.00;5.25;;;;;11.91;57.30;98515.84;5060685;28;45489;-61
2024/03/26 03:01:27;;;;;;;;;10.75;8.50;;;;;11.94;57.89;98517.41;5057530;28;45964;-61
2024/03/26 03:03:53;;;;;;;;;11.25;9.25;;;;;11.95;57.54;98509.47;5074575;27;69511;-60
2024/03/26 03:06:18;;;;;;;;;9.25;8.75;;;;;11.96;57.95;98508.50;5055325;28;51372;-59
2024/03/26 03:08:43;;;;;;;;;7.75;7.00;;;;;11.99;57.84;98509.22;5056333;28;67770;-59
2024/03/26 03:11:08;;;;;;;;;10.00;8.00;;;;;11.98;58.57;98502.31;5057690;28;74565;-59
2024/03/26 03:13:34;;;;;;;;;7.50;6.75;;;;;11.99;58.14;98502.22;5054400;28;70966;-61
2024/03/26 03:15:59;;;;;;;;;6.25;5.25;;;;;12.00;58.40;98492.56;5056769;28;49055;-61
2024/03/26 03:18:26;;;;;;;;;8.75;5.75;;;;;11.99;59.02;98496.13;5056206;28;71165;-60
2024/03/26 03:20:51;;;;;;;;;9.50;7.00;;;;;12.00;58.63;98501.25;5059816;28;47522;-61
2024/03/26 03:23:16;;;;;;;;;8.50;6.00;;;;;11.99;58.92;98498.75;5053911;28;71728;-61
2024/03/26 03:25:42;;;;;;;;;5.75;5.50;;;;;11.99;59.01;98498.75;5054776;28;60994;-60
2024/03/26 03:28:07;;;;;;;;;6.00;4.50;;;;;12.00;59.42;98503.06;5059386;28;70452;-62
2024/03/26 03:30:33;;;;;;;;;9.75;6.00;;;;;12.00;59.57;98497.81;5054920;28;75459;-61
2024/03/26 03:32:59;;;;;;;;;10.25;7.00;;;;;12.00;59.75;98508.28;5055154;28;45284;-62
2024/03/26 03:35:24;;;;;;;;;9.75;6.25;;;;;12.01;59.93;98504.75;5055274;28;56970;-62
2024/03/26 03:37:51;;;;;;;;;6.75;6.00;;;;;12.02;59.79;98498.53;5048972;28;59355;-62
2024/03/26 03:40:16;;;;;;;;;10.00;7.00;;;;;12.02;60.13;98503.78;5056775;28;45562;-62
2024/03/26 03:42:42;;;;;;;;;5.75;5.75;;;;;12.03;60.27;98505.47;5052802;28;45499;-61
2024/03/26 03:45:08;;;;;;;;;9.50;6.00;;;;;12.03;59.99;98500.22;5053966;28;45527;-62
2024/03/26 03:47:33;;;;;;;;;7.00;7.00;;;;;11.99;59.87;98504.84;5055384;28;59052;-61
2024/03/26 03:49:58;;;;;;;;;5.75;5.75;;;;;11.99;60.06;98504.84;5056412;28;66778;-59
2024/03/26 03:52:24;;;;;;;;;7.25;7.25;;;;;11.96;60.07;98499.81;5048217;28;46576;-60
2024/03/26 03:54:49;;;;;;;;;8.00;6.75;;;;;11.96;60.47;98507.66;5056477;28;68191;-60
2024/03/26 03:57:14;;;;;;;;;2.75;1.00;;;;;11.94;60.65;98504.31;5048885;28;64017;-61
2024/03/26 03:59:40;;;;;;;;;6.25;6.25;;;;;11.91;60.78;98507.97;5058311;28;64381;-60
2024/03/26 04:02:05;;;;;;;;;7.75;6.75;;;;;11.90;60.50;98508.06;5054568;28;53331;-60
2024/03/26 04:04:30;;;;;;;;;8.00;7.00;;;;;11.88;61.06;98512.56;5052071;28;47001;-60
2024/03/26 04:06:56;;;;;;;;;10.00;7.25;;;;;11.87;60.98;98510.88;5049324;28;70867;-61
2024/03/26 04:09:21;;;;;;;;;4.25;4.25;;;;;11.85;60.83;98508.38;5054569;28;73717;-60
2024/03/26 04:11:46;;;;;;;;;7.75;5.50;;;;;11.82;60.67;98507.75;5056664;28;72491;-61
2024/03/26 04:14:12;;;;;;;;;8.50;5.00;;;;;11.78;60.86;98504.50;5049205;28;45444;-59
2024/03/26 04:16:37;;;;;;;;;6.50;6.00;;;;;11.75;60.79;98509.94;5051790;28;69572;-59
2024/03/26 04:19:02;;;;;;;;;10.50;5.25;;;;;11.72;60.75;98503.13;5056866;28;75658;-60
2024/03/26 04:21:28;;;;;;;;;9.50;7.00;;;;;11.70;60.97;98507.59;5057436;28;70140;-61
2024/03/26 04:23:53;;;;;;;;;13.25;6.50;;;;;11.69;61.23;98505.13;5043924;28;45713;-62
2024/03/26 04:26:18;;;;;;;;;8.75;5.00;;;;;11.68;61.14;98503.44;5055288;28;45529;-61
2024/03/26 04:28:44;;;;;;;;;8.25;5.75;;;;;11.69;60.96;98505.94;5055011;28;75485;-60
2024/03/26 04:31:09;;;;;;;;;7.75;5.00;;;;;11.66;61.42;98505.31;5052499;28;67921;-61
2024/03/26 04:33:34;;;;;;;;;7.25;6.00;;;;;11.64;61.43;98508.03;5046571;28;68105;-61
2024/03/26 04:36:00;;;;;;;;;7.00;6.50;;;;;11.65;61.83;98498.38;5050023;28;68316;-61
2024/03/26 04:38:25;;;;;;;;;11.00;6.50;;;;;11.64;61.62;98501.97;5054899;28;75715;-61
2024/03/26 04:40:50;;;;;;;;;7.00;4.00;;;;;11.63;61.93;98493.25;5058425;28;45406;-61
2024/03/26 04:43:16;;;;;;;;;8.75;6.25;;;;;11.63;61.89;98498.50;5047178;28;68297;-61
2024/03/26 04:45:41;;;;;;;;;9.25;7.00;;;;;11.62;62.31;98496.00;5055724;28;72824;-61
2024/03/26 04:48:07;;;;;;;;;6.50;6.00;;;;;11.59;62.26;98497.03;5055595;28;46994;-61
2024/03/26 04:50:32;;;;;;;;;5.50;5.25;;;;;11.58;62.20;98496.19;5058378;28;45545;-61
2024/03/26 04:52:57;;;;;;;;;8.25;7.50;;;;;11.55;62.71;98492.94;5057150;28;69409;-61
2024/03/26 04:55:23;;;;;;;;;6.50;6.50;;;;;11.54;63.24;98494.72;5057722;28;45387;-61
2024/03/26 04:57:48;;;;;;;;;10.25;7.75;;;;;11.54;63.17;98496.50;5058013;28;46127;-62
2024/03/26 05:00:14;;;;;;;;;9.00;6.00;;;;;11.52;63.53;98491.34;5049276;28;71701;-61
2024/03/26 05:02:40;;;;;;;;;6.00;6.00;;;;;11.51;63.58;98480.97;5046442;28;45440;-61
2024/03/26 05:05:06;;;;;;;;;7.25;7.00;;;;;11.50;63.69;98489.78;5057162;28;45253;-61
2024/03/26 05:07:32;;;;;;;;;6.75;6.00;;;;;11.48;63.86;98481.19;5055198;28;45317;-61
2024/03/26 05:09:57;;;;;;;;;9.50;7.00;;;;;11.46;63.92;98472.63;5057452;28;45343;-61
2024/03/26 05:12:23;;;;;;;;;7.00;5.50;;;;;11.45;64.33;98479.59;5056480;28;69076;-61
2024/03/26 05:14:48;;;;;;;;;7.50;6.00;;;;;11.45;64.21;98481.41;5041622;28;65936;-61
2024/03/26 05:17:13;;;;;;;;;8.00;7.00;;;;;11.44;64.58;98479.72;5053439;28;72828;-61
2024/03/26 05:19:38;;;;;;;;;8.50;6.00;;;;;11.43;64.34;98475.44;5053688;28;72190;-61
2024/03/26 05:22:04;;;;;;;;;9.25;7.75;;;;;11.41;64.81;98480.75;5055658;28;69389;-60
2024/03/26 05:24:29;;;;;;;;;7.75;6.00;;;;;11.38;65.22;98484.44;5056235;28;70538;-58
2024/03/26 05:26:54;;;;;;;;;6.25;6.00;;;;;11.38;65.08;98487.06;5055408;28;69440;-60
2024/03/26 05:29:20;;;;;;;;;6.75;3.25;;;;;11.37;65.60;98484.53;5051418;28;56320;-61
2024/03/26 05:31:45;;;;;;;;;10.00;7.00;;;;;11.37;65.31;98485.38;5047079;28;45438;-61
2024/03/26 05:34:10;;;;;;;;;10.25;7.00;;;;;11.33;65.92;98481.28;5053043;28;45545;-61
2024/03/26 05:36:36;;;;;;;;;11.50;6.75;;;;;11.36;66.03;98490.72;5058157;28;64900;-61
2024/03/26 05:39:01;;;;;;;;;10.50;7.00;;;;;11.36;66.51;98485.47;5049452;28;65863;-61
2024/03/26 05:41:27;;;;;;;;;6.25;6.25;;;;;11.38;66.07;98487.06;5057018;28;45331;-61
2024/03/26 05:43:53;;;;;;;;;8.00;6.00;;;;;11.38;66.51;98481.81;5047874;28;45446;-61
2024/03/26 05:46:19;;;;;;;;;7.50;6.00;;;;;11.40;66.63;98489.56;5049436;28;45475;-61
2024/03/26 05:48:45;;;;;;;;;7.50;5.50;;;;;11.42;66.47;98487.69;5073709;27;45757;-61
2024/03/26 05:51:10;;;;;;;;;5.75;4.75;;;;;11.40;67.79;98486.94;5054120;28;45451;-61
2024/03/26 05:53:35;;;;;;;;;7.00;5.50;;;;;11.41;67.79;98475.53;5050566;28;72914;-61
2024/03/26 05:56:01;;;;;;;;;9.25;5.25;;;;;11.40;67.81;98479.94;5056819;28;75671;-61
2024/03/26 05:58:26;;;;;;;;;11.75;7.75;;;;;11.40;68.18;98471.22;5055992;28;62442;-61
2024/03/26 06:00:52;;;;;;;;;7.00;4.50;;;;;11.40;68.90;98486.94;5059998;28;59316;-62
2024/03/26 06:03:18;;;;;;;;;5.00;5.00;;;;;11.40;69.19;98479.94;5060139;28;45551;-62
2024/03/26 06:05:43;;;;;;;;;6.00;5.50;;;;;11.42;68.95;98487.69;5058639;28;45339;-62
2024/03/26 06:08:08;;;;;;;;;4.00;4.00;;;;;11.43;69.32;98483.28;5060799;28;73354;-62
2024/03/26 06:10:34;;;;;;;;;6.50;5.75;;;;;11.45;69.96;98474.38;5059871;28;68257;-62
2024/03/26 06:12:59;;;;;;;;;7.00;7.00;;;;;11.47;69.69;98471.66;5056626;28;64037;-62
2024/03/26 06:15:24;;;;;;;;;7.75;5.00;;;;;11.50;70.06;98468.84;5048359;28;63431;-62
2024/03/26 06:17:49;;;;;;;;;7.00;6.00;;;;;11.51;70.28;98473.13;5057411;28;73286;-60
2024/03/26 06:20:15;;;;;;;;;12.25;7.00;;;;;11.54;70.54;98470.28;5058640;28;67917;-61
2024/03/26 06:22:40;;;;;;;;;7.25;6.00;;;;;11.55;70.95;98470.19;5057642;28;53422;-59
2024/03/26 06:25:06;;;;;;;;;8.75;6.25;;;;;11.57;71.10;98476.16;5057611;28;75899;-60
2024/03/26 06:27:31;;;;;;;;;5.75;5.75;;;;;11.57;71.10;98476.16;5059260;28;45488;-60
2024/03/26 06:29:58;;;;;;;;;9.75;6.25;;;;;11.58;71.53;98470.00;5060322;28;68128;-58
2024/03/26 06:32:24;;;;;;;;;8.50;7.00;;;;;11.61;71.39;98473.34;5075594;27;45688;-57
2024/03/26 06:34:49;;;;;;;;;6.00;6.00;;;;;11.63;71.62;98479.31;5051939;28;75502;-58
2024/03/26 06:37:14;;;;;;;;;7.00;6.00;;;;;11.63;71.74;98468.84;5058816;28;69901;-62
2024/03/26 06:39:40;;;;;;;;;7.00;6.00;;;;;11.62;72.04;98470.63;5059500;28;61464;-60
2024/03/26 06:42:05;;;;;;;;;8.50;7.00;;;;;11.67;72.30;98472.91;5054129;28;45633;-59
2024/03/26 06:44:31;;;;;;;;;8.25;6.00;;;;;11.70;72.50;98470.09;5058927;28;46164;-59
2024/03/26 06:46:56;;;;;;;;;7.50;6.00;;;;;11.72;72.80;98474.31;5046043;28;72180;-59
2024/03/26 06:49:22;;;;;;;;;10.00;6.50;;;;;11.76;72.78;98467.91;5054729;28;69197;-60
2024/03/26 06:51:47;;;;;;;;;7.00;6.00;;;;;11.80;72.93;98468.53;5057019;28;45854;-65
2024/03/26 06:54:12;;;;;;;;;6.00;6.00;;;;;11.85;72.69;98468.22;5050581;28;74236;-62
2024/03/26 06:56:38;;;;;;;;;7.25;6.00;;;;;11.88;73.04;98452.28;5043550;28;73316;-63
2024/03/26 06:59:04;;;;;;;;;10.00;7.00;;;;;11.93;72.85;98460.69;5059149;28;69488;-62
2024/03/26 07:01:30;;;;;;;;;10.75;5.25;;;;;11.97;73.28;98454.31;5058012;28;45519;-54
2024/03/26 07:03:55;;;;;;;;;9.50;7.50;;;;;12.04;73.37;98454.69;5058033;28;76449;-59
2024/03/26 07:06:20;;;;;;;;;8.00;5.00;;;;;12.08;73.36;98451.78;5054284;28;67892;-54
2024/03/26 07:08:46;;;;;;;;;7.25;6.00;;;;;12.15;73.99;98449.56;5058205;28;69356;-62
2024/03/26 07:11:11;;;;;;;;;10.00;7.50;;;;;12.24;73.93;98455.94;5048522;28;58098;-60
2024/03/26 07:13:37;;;;;;;;;6.00;6.00;;;;;12.27;74.04;98445.22;5040309;28;69193;-63
2024/03/26 07:16:04;;;;;;;;;10.00;6.25;;;;;12.32;73.75;98449.22;5055934;28;70675;-62
2024/03/26 07:18:30;;;;;;;;;9.75;7.75;;;;;12.39;73.66;98454.00;5061183;28;45383;-63
2024/03/26 07:20:56;;;;;;;;;8.50;6.00;;;;;12.45;74.08;98445.72;5059930;28;45452;-62
2024/03/26 07:23:22;;;;;;;;;7.50;6.00;;;;;12.48;73.74;98441.09;5057455;28;46062;-60
2024/03/26 07:25:47;;;;;;;;;7.00;7.00;;;;;12.56;74.02;98444.94;5059093;28;73133;-61
2024/03/26 07:28:12;;;;;;;;;8.50;5.00;;;;;12.62;74.07;98440.06;5056910;28;45470;-60
2024/03/26 07:30:38;;;;;;;;;9.25;6.50;;;;;12.65;73.92;98433.78;5058643;28;70124;-60
2024/03/26 07:33:03;;;;;;;;;10.75;8.25;;;;;12.68;74.26;98436.19;5056471;27;71090;-60
2024/03/26 07:35:29;;;;;;;;;10.50;8.00;;;;;12.69;74.04;98433.44;5042147;28;64259;-59
2024/03/26 07:37:55;;;;;;;;;19.00;13.75;;;;;12.74;74.02;98433.09;5053433;28;45462;-60
2024/03/26 07:40:20;;;;;;;;;10.25;10.25;;;;;12.73;74.17;98426.19;5047807;28;45214;-60
2024/03/26 07:42:46;;;;;;;;;11.25;9.75;;;;;12.80;74.19;98429.19;5054421;28;75647;-60
2024/03/26 07:45:11;;;;;;;;;11.50;9.00;;;;;12.83;74.20;98431.59;5058390;28;46898;-63
2024/03/26 07:47:37;;;;;;;;;13.00;9.75;;;;;12.86;73.92;98424.34;5056332;28;68594;-62
2024/03/26 07:50:02;;;;;;;;;7.25;7.25;;;;;12.93;74.30;98427.34;5054131;28;46192;-59
2024/03/26 07:52:28;;;;;;;;;17.25;13.25;;;;;12.97;73.81;98427.97;5056736;28;45515;-62
2024/03/26 07:54:54;;;;;;;;;16.50;12.00;;;;;12.97;73.54;98433.22;5059081;28;45369;-62
2024/03/26 07:57:20;;;;;;;;;11.00;9.25;;;;;12.96;73.41;98427.13;5052200;28;45542;-62
2024/03/26 07:59:45;;;;;;;;;10.50;9.50;;;;;12.95;73.40;98424.63;5047751;28;72871;-62
2024/03/26 08:02:11;;;;;;;;;10.25;10.25;;;;;12.94;73.85;98425.56;5045698;28;46706;-62
2024/03/26 08:04:37;;;;;;;;;13.50;11.25;;;;;12.94;74.07;98426.38;5039231;28;46339;-61
2024/03/26 08:07:02;;;;;;;;;7.50;7.50;;;;;12.91;74.02;98416.97;5055200;28;45390;-61
2024/03/26 08:09:29;;;;;;;;;10.00;9.25;;;;;12.96;74.39;98421.03;5059060;28;47727;-62
2024/03/26 08:11:54;;;;;;;;;14.50;10.75;;;;;12.99;75.85;98423.44;5048583;28;45556;-59
2024/03/26 08:14:19;;;;;;;;;10.25;9.25;;;;;13.01;74.25;98421.53;5048274;28;61046;-59
2024/03/26 08:16:45;;;;;;;;;11.50;9.25;;;;;12.96;74.58;98419.25;5058642;28;51008;-59
2024/03/26 08:19:10;;;;;;;;;12.25;10.00;;;;;12.91;74.68;98406.47;5058525;28;63227;-59
2024/03/26 08:21:35;;;;;;;;;12.50;11.00;;;;;12.99;75.17;98415.56;5051794;28;75735;-61
2024/03/26 08:24:01;;;;;;;;;12.50;10.75;;;;;13.00;75.14;98415.44;5046972;28;70437;-59
2024/03/26 08:26:26;;;;;;;;;10.75;9.00;;;;;13.01;75.12;98408.41;5044512;28;60029;-59
2024/03/26 08:28:52;;;;;;;;;13.75;9.25;;;;;13.02;75.42;98408.28;5059530;28;71733;-59
2024/03/26 08:31:17;;;;;;;;;12.00;9.50;;;;;13.07;75.64;98408.78;5042114;28;46146;-59
2024/03/26 08:33:43;;;;;;;;;15.75;9.25;;;;;13.10;75.34;98399.81;5039235;28;72312;-60
2024/03/26 08:36:08;;;;;;;;;9.25;8.00;;;;;13.17;75.30;98398.41;5058349;28;45328;-58
2024/03/26 08:38:34;;;;;;;;;12.75;10.00;;;;;13.23;75.48;98403.22;5048025;28;70086;-58
2024/03/26 08:40:59;;;;;;;;;12.25;9.75;;;;;13.29;75.21;98399.28;5053144;28;61144;-57
2024/03/26 08:43:25;;;;;;;;;12.25;9.75;;;;;13.33;75.32;98398.13;5047680;28;62709;-57
2024/03/26 08:45:51;;;;;;;;;12.50;12.00;;;;;13.40;74.96;98403.75;5048538;28;45300;-57
2024/03/26 08:48:16;;;;;;;;;14.25;9.50;;;;;13.45;75.03;98399.00;5058309;28;66831;-58
2024/03/26 08:50:41;;;;;;;;;13.00;10.75;;;;;13.53;75.19;98407.13;5059600;28;69454;-59
2024/03/26 08:53:07;;;;;;;;;13.00;10.25;;;;;13.55;74.65;98399.13;5059540;28;69866;-59
2024/03/26 08:55:32;;;;;;;;;13.00;11.00;;;;;13.53;74.61;98390.50;5059180;28;69428;-59
2024/03/26 08:57:58;;;;;;;;;11.25;8.00;;;;;13.48;74.85;98394.34;5059876;28;45463;-59
2024/03/26 09:00:23;;;;;;;;;15.75;11.00;;;;;13.45;74.90;98393.72;5058522;28;47266;-59
2024/03/26 09:02:48;;;;;;;;;8.75;5.25;;;;;13.41;74.62;98387.88;5059038;28;72101;-59
2024/03/26 09:05:14;;;;;;;;;10.25;9.00;;;;;13.39;74.48;98384.53;5057662;28;45691;-59
2024/03/26 09:07:39;;;;;;;;;14.50;11.50;;;;;13.39;74.61;98383.72;5044389;28;45267;-59
2024/03/26 09:10:06;;;;;;;;;11.00;9.25;;;;;13.35;74.99;98379.63;5057599;28;74044;-59
2024/03/26 09:12:32;;;;;;;;;13.50;10.50;;;;;13.25;74.54;98377.66;5044207;28;45344;-59
2024/03/26 09:14:58;;;;;;;;;11.50;10.00;;;;;13.24;75.12;98380.41;5053956;28;45483;-59
2024/03/26 09:17:23;;;;;;;;;14.25;11.00;;;;;13.21;74.88;98378.00;5058845;28;67729;-59
2024/03/26 09:19:48;;;;;;;;;12.25;10.50;;;;;13.19;75.04;98374.66;5058603;28;74498;-59
2024/03/26 09:22:14;;;;;;;;;10.50;9.00;;;;;13.15;74.86;98379.31;5051120;28;59500;-59
2024/03/26 09:24:39;;;;;;;;;7.50;6.75;;;;;13.14;75.29;98372.41;5054638;28;55330;-59
2024/03/26 09:27:04;;;;;;;;;9.50;7.75;;;;;13.15;75.08;98365.34;5038773;28;67738;-59
2024/03/26 09:29:30;;;;;;;;;12.00;8.00;;;;;13.18;75.56;98373.00;5040203;28;72606;-59
2024/03/26 09:31:55;;;;;;;;;12.75;10.75;;;;;13.20;75.28;98369.28;5053727;28;73274;-59
2024/03/26 09:34:21;;;;;;;;;11.00;9.50;;;;;13.27;75.76;98367.88;5062637;28;61979;-59
2024/03/26 09:36:49;;;;;;;;;8.25;8.00;;;;;13.35;75.48;98364.72;5064291;28;45604;-59
2024/03/26 09:39:14;;;;;;;;;11.00;9.00;;;;;13.38;75.20;98363.63;5046830;28;47296;-59
2024/03/26 09:41:39;;;;;;;;;12.00;9.00;;;;;13.38;74.62;98366.25;5046708;28;73267;-59
2024/03/26 09:44:05;;;;;;;;;12.25;11.50;;;;;13.37;75.07;98367.19;5042395;28;64191;-59
2024/03/26 09:46:30;;;;;;;;;9.75;8.50;;;;;13.39;74.72;98366.16;5055722;28;60940;-59
2024/03/26 09:48:58;;;;;;;;;8.75;5.50;;;;;13.43;75.12;98356.22;5062702;28;45309;-57
2024/03/26 09:51:24;;;;;;;;;13.25;10.75;;;;;13.46;74.94;98358.63;5063219;28;45811;-56
2024/03/26 09:53:50;;;;;;;;;8.00;8.00;;;;;13.48;74.73;98359.34;5063320;28;45299;-58
2024/03/26 09:56:17;;;;;;;;;12.50;9.75;;;;;13.46;75.08;98356.84;5061320;28;66921;-57
2024/03/26 09:58:42;;;;;;;;;11.25;9.25;;;;;13.41;74.85;98353.72;5062706;28;46151;-59
2024/03/26 10:01:08;;;;;;;;;12.50;9.50;;;;;13.39;75.25;98349.56;5060670;28;72712;-60
2024/03/26 10:03:33;;;;;;;;;17.50;11.00;;;;;13.37;74.77;98348.81;5061459;28;45200;-60
2024/03/26 10:06:02;;;;;;;;;8.00;8.00;;;;;13.28;74.60;98343.28;5061544;28;73186;-60
2024/03/26 10:08:28;;;;;;;;;8.75;8.00;;;;;13.25;74.90;98347.94;5060535;28;46468;-60
2024/03/26 10:10:57;;;;;;;;;10.00;7.75;;;;;13.22;74.52;98338.50;5042979;28;45453;-59
2024/03/26 10:13:22;;;;;;;;;11.50;9.50;;;;;13.25;75.04;98345.31;5047283;28;45276;-60
2024/03/26 10:15:48;;;;;;;;;9.75;8.50;;;;;13.26;74.64;98341.72;5041745;28;71744;-59
2024/03/26 10:18:13;;;;;;;;;9.50;7.50;;;;;13.30;74.84;98343.19;5042066;28;46135;-59
2024/03/26 10:20:39;;;;;;;;;0.00;0.00;;;;;13.28;74.51;98343.28;5047313;28;45259;-61
2024/03/26 10:23:05;;;;;;;;;5.00;5.00;;;;;13.25;74.61;98338.28;5046723;28;65840;-58
2024/03/26 10:25:30;;;;;;;;;6.75;4.75;;;;;13.25;74.44;98324.31;5042472;28;45404;-58
2024/03/26 10:27:57;;;;;;;;;9.00;8.25;;;;;13.30;74.15;98327.41;5041994;28;61547;-60
2024/03/26 10:30:23;;;;;;;;;6.00;6.00;;;;;13.35;74.19;98311.31;5042152;28;45420;-60
2024/03/26 10:32:55;;;;;;;;;5.50;5.25;;;;;13.53;74.23;98317.78;5042109;28;45379;-58
2024/03/26 10:35:22;;;;;;;;;7.50;6.00;;;;;13.67;74.19;98317.53;5041024;28;45452;-59
2024/03/26 10:37:51;;;;;;;;;4.75;4.75;;;;;13.78;73.79;98308.81;5042014;28;45693;-55
2024/03/26 10:40:40;;;;;;;;;3.50;3.50;;;;;13.84;73.51;98318.00;5058591;28;45870;-58
2024/03/26 10:43:05;;;;;;;;;4.50;4.25;;;;;13.78;73.23;98323.75;5048490;28;45280;-58
2024/03/26 10:45:31;;;;;;;;;4.50;4.00;;;;;13.74;73.70;98309.16;5061615;28;45536;-58
2024/03/26 10:47:59;;;;;;;;;5.50;5.25;;;;;13.71;73.38;98304.16;5054394;28;46311;-58
2024/03/26 10:50:24;;;;;;;;;6.00;4.00;;;;;13.74;74.02;98298.66;5042141;28;45903;-58
2024/03/26 10:52:51;;;;;;;;;7.75;5.00;;;;;13.86;73.78;98284.53;5048021;28;60535;-56
2024/03/26 10:55:16;;;;;;;;;3.50;3.50;;;;;13.95;73.36;98280.31;5050134;28;45289;-56
2024/03/26 10:57:42;;;;;;;;;8.50;4.00;;;;;14.02;73.10;98285.00;5062170;28;47021;-57
2024/03/26 11:00:10;;;;;;;;;8.00;4.75;;;;;14.10;72.81;98279.09;5053681;28;45252;-57
2024/03/26 11:02:37;;;;;;;;;6.00;5.25;;;;;14.10;72.52;98268.56;5041961;28;45365;-56
2024/03/26 11:05:04;;;;;;;;;8.50;5.50;;;;;14.15;72.84;98284.00;5041483;28;46180;-57
2024/03/26 11:07:32;;;;;;;;;6.75;5.50;;;;;14.22;73.20;98283.38;5056302;28;47141;-58
2024/03/26 11:10:17;;;;;;;;;9.50;5.00;;;;;14.44;73.17;98271.06;5027243;28;45720;-58
2024/03/26 11:12:44;;;;;;;;;5.75;5.25;;;;;14.63;72.54;98267.78;5046267;28;45293;-59
2024/03/26 11:15:31;;;;;;;;;5.50;5.50;;;;;14.80;71.70;98269.84;5060345;28;45453;-58
2024/03/26 11:18:04;;;;;;;;;7.25;6.50;;;;;15.00;71.34;98254.16;5061514;28;45374;-60
2024/03/26 11:20:31;;;;;;;;;9.25;6.75;;;;;15.16;70.09;98262.41;5061804;28;45291;-61
2024/03/26 11:23:06;;;;;;;;;7.50;7.50;;;;;15.25;69.87;98250.25;5047663;28;45339;-60